sensor_id;sensor_type;location;lat;lon;timestamp;pressure;altitude;pressure_sealevel;temperature;humidity
29315;BME280;16320;53.954;9.506;2023-05-08T00:00:38;102182.97;;;10.00;100.00
29315;BME280;16320;53.954;9.506;2023-05-08T00:03:42;102189.22;;;9.94;100.00
29315;BME280;16320;53.954;9.506;2023-05-08T00:06:46;102188.44;;;9.90;100.00
29315;BME280;16320;53.954;9.506;2023-05-08T00:09:51;102187.59;;;9.90;100.00
29315;BME280;16320;53.954;9.506;2023-05-08T00:12:55;102178.06;;;9.86;100.00
29315;BME280;16320;53.954;9.506;2023-05-08T00:16:01;102189.34;;;9.91;100.00
29315;BME280;16320;53.954;9.506;2023-05-08T00:19:06;102197.22;;;9.91;100.00
29315;BME280;16320;53.954;9.506;2023-05-08T00:22:10;102192.84;;;9.90;100.00
29315;BME280;16320;53.954;9.506;2023-05-08T00:25:15;102179.91;;;9.82;100.00
29315;BME280;16320;53.954;9.506;2023-05-08T00:28:20;102177.41;;;9.78;100.00
29315;BME280;16320;53.954;9.506;2023-05-08T00:31:24;102196.66;;;9.78;100.00
29315;BME280;16320;53.954;9.506;2023-05-08T00:34:28;102192.28;;;9.77;100.00
29315;BME280;16320;53.954;9.506;2023-05-08T00:37:32;102196.69;;;9.77;100.00
29315;BME280;16320;53.954;9.506;2023-05-08T00:40:36;102197.56;;;9.76;100.00
29315;BME280;16320;53.954;9.506;2023-05-08T00:43:41;102202.97;;;9.69;100.00
29315;BME280;16320;53.954;9.506;2023-05-08T00:46:45;102206.53;;;9.67;100.00
29315;BME280;16320;53.954;9.506;2023-05-08T00:49:50;102205.59;;;9.69;100.00
29315;BME280;16320;53.954;9.506;2023-05-08T00:52:56;102210.06;;;9.66;100.00
29315;BME280;16320;53.954;9.506;2023-05-08T00:56:02;102219.69;;;9.65;100.00
29315;BME280;16320;53.954;9.506;2023-05-08T00:59:10;102209.19;;;9.65;100.00
29315;BME280;16320;53.954;9.506;2023-05-08T01:02:15;102212.66;;;9.67;100.00
29315;BME280;16320;53.954;9.506;2023-05-08T01:05:20;102201.25;;;9.68;100.00
29315;BME280;16320;53.954;9.506;2023-05-08T01:08:24;102209.13;;;9.68;100.00
29315;BME280;16320;53.954;9.506;2023-05-08T01:18:31;102202.50;;;9.52;100.00
29315;BME280;16320;53.954;9.506;2023-05-08T01:21:48;102206.84;;;9.53;100.00
29315;BME280;16320;53.954;9.506;2023-05-08T01:35:30;102207.75;;;9.52;100.00
29315;BME280;16320;53.954;9.506;2023-05-08T01:42:52;102210.50;;;9.47;100.00
29315;BME280;16320;53.954;9.506;2023-05-08T01:45:50;102216.56;;;9.49;100.00
29315;BME280;16320;53.954;9.506;2023-05-08T01:49:26;102215.84;;;9.43;100.00
29315;BME280;16320;53.954;9.506;2023-05-08T01:52:36;102207.22;;;9.38;100.00
29315;BME280;16320;53.954;9.506;2023-05-08T01:55:49;102210.06;;;9.28;100.00
29315;BME280;16320;53.954;9.506;2023-05-08T01:58:58;102214.31;;;9.32;100.00
29315;BME280;16320;53.954;9.506;2023-05-08T02:02:04;102213.56;;;9.27;100.00
29315;BME280;16320;53.954;9.506;2023-05-08T02:05:11;102208.25;;;9.30;100.00
29315;BME280;16320;53.954;9.506;2023-05-08T02:08:16;102215.38;;;9.25;100.00
29315;BME280;16320;53.954;9.506;2023-05-08T02:11:23;102215.44;;;9.22;100.00
29315;BME280;16320;53.954;9.506;2023-05-08T02:14:28;102209.38;;;9.20;100.00
29315;BME280;16320;53.954;9.506;2023-05-08T02:17:35;102203.31;;;9.18;100.00
29315;BME280;16320;53.954;9.506;2023-05-08T02:20:41;102210.38;;;9.13;100.00
29315;BME280;16320;53.954;9.506;2023-05-08T02:23:46;102207.78;;;9.11;100.00
29315;BME280;16320;53.954;9.506;2023-05-08T02:26:51;102221.78;;;9.12;100.00
29315;BME280;16320;53.954;9.506;2023-05-08T02:29:57;102213.97;;;9.09;100.00
29315;BME280;16320;53.954;9.506;2023-05-08T02:33:07;102219.34;;;9.03;100.00
29315;BME280;16320;53.954;9.506;2023-05-08T02:36:15;102208.97;;;8.96;100.00
29315;BME280;16320;53.954;9.506;2023-05-08T02:39:25;102219.41;;;9.00;100.00
29315;BME280;16320;53.954;9.506;2023-05-08T02:42:33;102219.47;;;8.96;100.00
29315;BME280;16320;53.954;9.506;2023-05-08T02:45:51;102220.44;;;8.92;100.00
29315;BME280;16320;53.954;9.506;2023-05-08T02:49:11;102204.69;;;8.94;100.00
29315;BME280;16320;53.954;9.506;2023-05-08T02:52:32;102203.03;;;8.88;100.00
29315;BME280;16320;53.954;9.506;2023-05-08T02:55:57;102209.19;;;8.87;100.00
29315;BME280;16320;53.954;9.506;2023-05-08T02:59:44;102193.50;;;8.86;100.00
29315;BME280;16320;53.954;9.506;2023-05-08T03:02:54;102181.25;;;8.86;100.00
29315;BME280;16320;53.954;9.506;2023-05-08T03:06:02;102176.84;;;8.88;100.00
29315;BME280;16320;53.954;9.506;2023-05-08T03:09:17;102160.28;;;8.86;100.00
29315;BME280;16320;53.954;9.506;2023-05-08T03:12:25;102167.41;;;8.81;100.00
29315;BME280;16320;53.954;9.506;2023-05-08T03:15:41;102174.44;;;8.79;100.00
29315;BME280;16320;53.954;9.506;2023-05-08T03:18:52;102177.19;;;8.73;100.00
29315;BME280;16320;53.954;9.506;2023-05-08T03:21:59;102170.16;;;8.73;100.00
29315;BME280;16320;53.954;9.506;2023-05-08T03:25:08;102165.78;;;8.74;100.00
29315;BME280;16320;53.954;9.506;2023-05-08T03:28:14;102158.84;;;8.73;100.00
29315;BME280;16320;53.954;9.506;2023-05-08T03:31:20;102156.25;;;8.71;100.00
29315;BME280;16320;53.954;9.506;2023-05-08T03:34:25;102158.97;;;8.67;100.00
29315;BME280;16320;53.954;9.506;2023-05-08T03:37:31;102162.47;;;8.66;100.00
29315;BME280;16320;53.954;9.506;2023-05-08T03:40:36;102162.44;;;8.67;100.00
29315;BME280;16320;53.954;9.506;2023-05-08T03:43:46;102161.53;;;8.70;100.00
29315;BME280;16320;53.954;9.506;2023-05-08T03:46:51;102156.38;;;8.65;100.00
29315;BME280;16320;53.954;9.506;2023-05-08T03:49:59;102154.75;;;8.59;100.00
29315;BME280;16320;53.954;9.506;2023-05-08T03:53:04;102151.22;;;8.60;100.00
29315;BME280;16320;53.954;9.506;2023-05-08T03:56:08;102140.72;;;8.62;100.00
29315;BME280;16320;53.954;9.506;2023-05-08T03:59:23;102143.31;;;8.64;100.00
29315;BME280;16320;53.954;9.506;2023-05-08T04:02:46;102141.59;;;8.61;100.00
29315;BME280;16320;53.954;9.506;2023-05-08T04:06:48;102142.47;;;8.61;100.00
29315;BME280;16320;53.954;9.506;2023-05-08T04:09:37;102134.56;;;8.65;100.00
29315;BME280;16320;53.954;9.506;2023-05-08T04:13:04;102132.00;;;8.61;100.00
29315;BME280;16320;53.954;9.506;2023-05-08T04:16:21;102132.88;;;8.60;100.00
29315;BME280;16320;53.954;9.506;2023-05-08T04:19:32;102143.31;;;8.64;100.00
29315;BME280;16320;53.954;9.506;2023-05-08T04:22:39;102146.69;;;8.69;100.00
29315;BME280;16320;53.954;9.506;2023-05-08T04:25:46;102140.53;;;8.71;100.00
29315;BME280;16320;53.954;9.506;2023-05-08T04:28:51;102135.22;;;8.74;100.00
29315;BME280;16320;53.954;9.506;2023-05-08T04:31:56;102144.81;;;8.74;100.00
29315;BME280;16320;53.954;9.506;2023-05-08T04:35:04;102149.19;;;8.75;100.00
29315;BME280;16320;53.954;9.506;2023-05-08T04:38:09;102150.00;;;8.77;100.00
29315;BME280;16320;53.954;9.506;2023-05-08T04:41:14;102157.78;;;8.82;100.00
29315;BME280;16320;53.954;9.506;2023-05-08T04:44:18;102156.91;;;8.81;100.00
29315;BME280;16320;53.954;9.506;2023-05-08T04:47:23;102156.84;;;8.84;100.00
29315;BME280;16320;53.954;9.506;2023-05-08T04:50:27;102162.97;;;8.83;100.00
29315;BME280;16320;53.954;9.506;2023-05-08T04:53:32;102168.19;;;8.85;100.00
29315;BME280;16320;53.954;9.506;2023-05-08T04:56:36;102162.09;;;8.84;100.00
29315;BME280;16320;53.954;9.506;2023-05-08T04:59:41;102161.31;;;8.81;100.00
29315;BME280;16320;53.954;9.506;2023-05-08T05:02:45;102167.44;;;8.79;100.00
29315;BME280;16320;53.954;9.506;2023-05-08T05:05:57;102169.09;;;8.82;100.00
29315;BME280;16320;53.954;9.506;2023-05-08T05:09:02;102172.50;;;8.87;100.00
29315;BME280;16320;53.954;9.506;2023-05-08T05:12:07;102163.75;;;8.88;100.00
29315;BME280;16320;53.954;9.506;2023-05-08T05:15:11;102165.41;;;8.92;100.00
29315;BME280;16320;53.954;9.506;2023-05-08T05:18:16;102160.16;;;8.92;100.00
29315;BME280;16320;53.954;9.506;2023-05-08T05:21:21;102165.47;;;8.89;100.00
29315;BME280;16320;53.954;9.506;2023-05-08T05:24:25;102158.38;;;8.94;100.00
29315;BME280;16320;53.954;9.506;2023-05-08T05:27:30;102170.44;;;9.02;100.00
29315;BME280;16320;53.954;9.506;2023-05-08T05:30:34;102176.44;;;9.08;100.00
29315;BME280;16320;53.954;9.506;2023-05-08T05:33:39;102164.88;;;9.17;100.00
29315;BME280;16320;53.954;9.506;2023-05-08T05:36:43;102157.78;;;9.21;100.00
29315;BME280;16320;53.954;9.506;2023-05-08T05:39:48;102159.41;;;9.26;100.00
29315;BME280;16320;53.954;9.506;2023-05-08T05:42:53;102167.91;;;9.38;100.00
29315;BME280;16320;53.954;9.506;2023-05-08T05:46:04;102160.72;;;9.46;100.00
29315;BME280;16320;53.954;9.506;2023-05-08T05:49:09;102165.72;;;9.55;100.00
29315;BME280;16320;53.954;9.506;2023-05-08T05:52:15;102165.41;;;9.67;100.00
29315;BME280;16320;53.954;9.506;2023-05-08T05:55:19;102165.28;;;9.74;100.00
29315;BME280;16320;53.954;9.506;2023-05-08T05:58:24;102172.06;;;9.81;100.00
29315;BME280;16320;53.954;9.506;2023-05-08T06:01:28;102163.09;;;9.91;100.00
29315;BME280;16320;53.954;9.506;2023-05-08T06:04:32;102156.03;;;9.93;100.00
29315;BME280;16320;53.954;9.506;2023-05-08T06:07:38;102147.03;;;10.02;100.00
29315;BME280;16320;53.954;9.506;2023-05-08T06:10:43;102146.84;;;10.10;100.00
29315;BME280;16320;53.954;9.506;2023-05-08T06:13:47;102153.63;;;10.17;100.00
29315;BME280;16320;53.954;9.506;2023-05-08T06:16:53;102153.47;;;10.23;100.00
29315;BME280;16320;53.954;9.506;2023-05-08T06:19:58;102154.50;;;10.17;100.00
29315;BME280;16320;53.954;9.506;2023-05-08T06:23:02;102142.97;;;10.23;100.00
29315;BME280;16320;53.954;9.506;2023-05-08T06:26:07;102153.22;;;10.34;100.00
29315;BME280;16320;53.954;9.506;2023-05-08T06:29:12;102138.97;;;10.42;100.00
29315;BME280;16320;53.954;9.506;2023-05-08T06:32:20;102147.75;;;10.41;100.00
29315;BME280;16320;53.954;9.506;2023-05-08T06:35:25;102146.72;;;10.47;100.00
29315;BME280;16320;53.954;9.506;2023-05-08T06:38:32;102155.22;;;10.55;100.00
29315;BME280;16320;53.954;9.506;2023-05-08T06:41:41;102143.31;;;10.73;100.00
29315;BME280;16320;53.954;9.506;2023-05-08T06:44:47;102147.13;;;10.93;100.00
29315;BME280;16320;53.954;9.506;2023-05-08T06:47:53;102128.34;;;11.05;100.00
29315;BME280;16320;53.954;9.506;2023-05-08T06:50:59;102129.56;;;11.22;100.00
29315;BME280;16320;53.954;9.506;2023-05-08T06:54:05;102122.31;;;11.30;100.00
29315;BME280;16320;53.954;9.506;2023-05-08T06:57:12;102125.53;;;11.38;100.00
29315;BME280;16320;53.954;9.506;2023-05-08T07:00:17;102119.16;;;11.45;100.00
29315;BME280;16320;53.954;9.506;2023-05-08T07:03:22;102124.91;;;11.57;100.00
29315;BME280;16320;53.954;9.506;2023-05-08T07:06:27;102110.34;;;11.73;100.00
29315;BME280;16320;53.954;9.506;2023-05-08T07:09:31;102114.53;;;11.79;100.00
29315;BME280;16320;53.954;9.506;2023-05-08T07:12:36;102108.41;;;11.78;100.00
29315;BME280;16320;53.954;9.506;2023-05-08T07:15:42;102114.44;;;11.82;100.00
29315;BME280;16320;53.954;9.506;2023-05-08T07:18:48;102114.16;;;11.89;100.00
29315;BME280;16320;53.954;9.506;2023-05-08T07:21:53;102110.53;;;11.94;100.00
29315;BME280;16320;53.954;9.506;2023-05-08T07:24:58;102114.59;;;12.04;100.00
29315;BME280;16320;53.954;9.506;2023-05-08T07:28:03;102095.31;;;12.02;100.00
29315;BME280;16320;53.954;9.506;2023-05-08T07:31:08;102101.41;;;12.04;100.00
29315;BME280;16320;53.954;9.506;2023-05-08T07:34:13;102109.19;;;12.07;100.00
29315;BME280;16320;53.954;9.506;2023-05-08T07:37:17;102098.44;;;12.13;100.00
29315;BME280;16320;53.954;9.506;2023-05-08T07:40:25;102104.56;;;12.14;100.00
29315;BME280;16320;53.954;9.506;2023-05-08T07:43:32;102094.78;;;12.17;100.00
29315;BME280;16320;53.954;9.506;2023-05-08T07:46:37;102087.88;;;12.13;100.00
29315;BME280;16320;53.954;9.506;2023-05-08T07:49:42;102086.19;;;12.12;100.00
29315;BME280;16320;53.954;9.506;2023-05-08T07:52:51;102091.00;;;12.24;100.00
29315;BME280;16320;53.954;9.506;2023-05-08T07:55:56;102084.41;;;12.36;100.00
29315;BME280;16320;53.954;9.506;2023-05-08T07:59:00;102079.22;;;12.35;100.00
29315;BME280;16320;53.954;9.506;2023-05-08T08:02:07;102078.38;;;12.33;100.00
29315;BME280;16320;53.954;9.506;2023-05-08T08:05:12;102082.53;;;12.40;100.00
29315;BME280;16320;53.954;9.506;2023-05-08T08:08:18;102078.50;;;12.53;100.00
29315;BME280;16320;53.954;9.506;2023-05-08T08:11:30;102083.44;;;12.62;100.00
29315;BME280;16320;53.954;9.506;2023-05-08T08:14:31;102089.16;;;12.74;100.00
29315;BME280;16320;53.954;9.506;2023-05-08T08:18:09;102089.16;;;12.74;100.00
29315;BME280;16320;53.954;9.506;2023-05-08T08:21:50;102083.88;;;12.74;100.00
29315;BME280;16320;53.954;9.506;2023-05-08T08:24:57;102087.31;;;12.76;100.00
29315;BME280;16320;53.954;9.506;2023-05-08T08:28:04;102073.31;;;12.74;100.00
29315;BME280;16320;53.954;9.506;2023-05-08T08:32:09;102080.25;;;12.76;100.00
29315;BME280;16320;53.954;9.506;2023-05-08T08:35:35;102074.28;;;12.71;100.00
29315;BME280;16320;53.954;9.506;2023-05-08T08:43:26;102073.63;;;12.88;100.00
29315;BME280;16320;53.954;9.506;2023-05-08T08:46:32;102075.66;;;13.04;100.00
29315;BME280;16320;53.954;9.506;2023-05-08T08:49:45;102082.25;;;13.14;100.00
29315;BME280;16320;53.954;9.506;2023-05-08T08:53:30;102086.50;;;13.18;100.00
29315;BME280;16320;53.954;9.506;2023-05-08T08:56:40;102089.25;;;13.15;100.00
29315;BME280;16320;53.954;9.506;2023-05-08T08:59:48;102079.44;;;13.18;100.00
29315;BME280;16320;53.954;9.506;2023-05-08T09:02:54;102067.63;;;13.27;100.00
29315;BME280;16320;53.954;9.506;2023-05-08T09:05:59;102071.34;;;13.23;100.00
29315;BME280;16320;53.954;9.506;2023-05-08T09:09:05;102062.13;;;13.33;100.00
29315;BME280;16320;53.954;9.506;2023-05-08T09:12:15;102076.16;;;13.35;100.00
29315;BME280;16320;53.954;9.506;2023-05-08T09:15:22;102063.97;;;13.31;100.00
29315;BME280;16320;53.954;9.506;2023-05-08T09:18:32;102077.47;;;13.24;100.00
29315;BME280;16320;53.954;9.506;2023-05-08T09:21:40;102073.41;;;13.37;100.00
29315;BME280;16320;53.954;9.506;2023-05-08T09:25:03;102076.44;;;13.28;100.00
29315;BME280;16320;53.954;9.506;2023-05-08T09:28:22;102060.38;;;13.34;100.00
29315;BME280;16320;53.954;9.506;2023-05-08T09:31:37;102069.03;;;13.38;100.00
29315;BME280;16320;53.954;9.506;2023-05-08T09:34:51;102063.34;;;13.67;100.00
29315;BME280;16320;53.954;9.506;2023-05-08T09:38:50;102053.94;;;14.01;100.00
29315;BME280;16320;53.954;9.506;2023-05-08T09:42:47;102058.09;;;14.26;100.00
29315;BME280;16320;53.954;9.506;2023-05-08T09:46:23;102053.66;;;14.45;100.00
29315;BME280;16320;53.954;9.506;2023-05-08T09:49:25;102044.81;;;14.46;100.00
29315;BME280;16320;53.954;9.506;2023-05-08T09:52:31;102042.03;;;14.50;100.00
29315;BME280;16320;53.954;9.506;2023-05-08T09:55:57;102042.66;;;14.55;100.00
29315;BME280;16320;53.954;9.506;2023-05-08T09:59:26;102033.94;;;14.72;100.00
29315;BME280;16320;53.954;9.506;2023-05-08T10:02:31;102030.50;;;14.89;100.00
29315;BME280;16320;53.954;9.506;2023-05-08T10:05:36;102038.91;;;14.97;100.00
29315;BME280;16320;53.954;9.506;2023-05-08T10:08:40;102036.75;;;15.05;100.00
29315;BME280;16320;53.954;9.506;2023-05-08T10:11:52;102043.56;;;15.09;100.00
29315;BME280;16320;53.954;9.506;2023-05-08T10:14:58;102028.88;;;15.04;100.00
29315;BME280;16320;53.954;9.506;2023-05-08T10:18:05;102025.38;;;15.20;100.00
29315;BME280;16320;53.954;9.506;2023-05-08T10:21:10;102032.41;;;15.39;100.00
29315;BME280;16320;53.954;9.506;2023-05-08T10:24:40;102021.81;;;15.56;100.00
29315;BME280;16320;53.954;9.506;2023-05-08T10:31:17;102022.78;;;15.89;100.00
29315;BME280;16320;53.954;9.506;2023-05-08T10:34:23;102021.59;;;15.95;100.00
29315;BME280;16320;53.954;9.506;2023-05-08T10:37:32;102018.78;;;15.98;100.00
29315;BME280;16320;53.954;9.506;2023-05-08T10:41:03;102013.59;;;16.12;100.00
29315;BME280;16320;53.954;9.506;2023-05-08T10:44:18;102005.38;;;16.33;100.00
29315;BME280;16320;53.954;9.506;2023-05-08T10:56:02;101973.31;;;18.43;100.00
29315;BME280;16320;53.954;9.506;2023-05-08T10:59:25;101980.75;;;18.93;100.00
29315;BME280;16320;53.954;9.506;2023-05-08T11:03:10;101973.50;;;18.95;100.00
29315;BME280;16320;53.954;9.506;2023-05-08T11:06:49;101962.88;;;19.08;100.00
29315;BME280;16320;53.954;9.506;2023-05-08T11:10:30;101955.00;;;19.32;100.00
29315;BME280;16320;53.954;9.506;2023-05-08T11:17:53;101962.56;;;19.12;100.00
29315;BME280;16320;53.954;9.506;2023-05-08T11:21:05;101960.66;;;19.27;100.00
29315;BME280;16320;53.954;9.506;2023-05-08T11:24:17;101956.06;;;19.55;100.00
29315;BME280;16320;53.954;9.506;2023-05-08T11:30:38;101972.13;;;18.62;100.00
29315;BME280;16320;53.954;9.506;2023-05-08T11:33:57;101960.00;;;18.43;100.00
29315;BME280;16320;53.954;9.506;2023-05-08T11:37:25;101966.69;;;18.36;100.00
29315;BME280;16320;53.954;9.506;2023-05-08T11:47:07;101969.31;;;18.91;100.00
29315;BME280;16320;53.954;9.506;2023-05-08T11:50:13;101959.66;;;18.90;100.00
29315;BME280;16320;53.954;9.506;2023-05-08T11:53:18;101961.47;;;19.02;100.00
29315;BME280;16320;53.954;9.506;2023-05-08T11:56:23;101970.09;;;19.18;100.00
29315;BME280;16320;53.954;9.506;2023-05-08T11:59:27;101954.56;;;19.38;100.00
29315;BME280;16320;53.954;9.506;2023-05-08T12:02:40;101956.91;;;19.81;100.00
29315;BME280;16320;53.954;9.506;2023-05-08T12:05:47;101959.44;;;19.96;100.00
29315;BME280;16320;53.954;9.506;2023-05-08T12:08:52;101964.16;;;19.53;100.00
29315;BME280;16320;53.954;9.506;2023-05-08T12:11:57;101950.84;;;19.53;100.00
29315;BME280;16320;53.954;9.506;2023-05-08T12:15:06;101945.72;;;19.63;100.00
29315;BME280;16320;53.954;9.506;2023-05-08T12:18:16;101944.53;;;19.80;100.00
29315;BME280;16320;53.954;9.506;2023-05-08T12:21:24;101945.81;;;19.87;100.00
29315;BME280;16320;53.954;9.506;2023-05-08T12:24:40;101929.66;;;20.26;100.00
29315;BME280;16320;53.954;9.506;2023-05-08T12:27:51;101926.38;;;20.71;100.00
29315;BME280;16320;53.954;9.506;2023-05-08T12:31:04;101924.28;;;21.10;100.00
29315;BME280;16320;53.954;9.506;2023-05-08T12:34:20;101917.16;;;21.33;100.00
29315;BME280;16320;53.954;9.506;2023-05-08T12:37:26;101932.13;;;21.69;100.00
29315;BME280;16320;53.954;9.506;2023-05-08T12:40:41;101928.31;;;21.94;100.00
29315;BME280;16320;53.954;9.506;2023-05-08T12:43:46;101931.66;;;21.75;100.00
29315;BME280;16320;53.954;9.506;2023-05-08T12:46:55;101921.91;;;21.86;83.68
29315;BME280;16320;53.954;9.506;2023-05-08T12:50:01;101918.38;;;21.97;83.89
29315;BME280;16320;53.954;9.506;2023-05-08T12:53:23;101923.81;;;22.06;86.67
29315;BME280;16320;53.954;9.506;2023-05-08T12:57:27;101911.97;;;21.54;99.79
29315;BME280;16320;53.954;9.506;2023-05-08T13:01:30;101911.56;;;21.47;75.72
29315;BME280;16320;53.954;9.506;2023-05-08T13:05:00;101904.16;;;21.28;85.73
29315;BME280;16320;53.954;9.506;2023-05-08T13:08:13;101914.34;;;21.34;84.00
29315;BME280;16320;53.954;9.506;2023-05-08T13:11:30;101909.47;;;21.17;93.91
29315;BME280;16320;53.954;9.506;2023-05-08T13:14:36;101917.75;;;21.02;71.85
29315;BME280;16320;53.954;9.506;2023-05-08T13:17:40;101917.66;;;20.69;80.17
29315;BME280;16320;53.954;9.506;2023-05-08T13:20:46;101901.06;;;20.52;89.20
29315;BME280;16320;53.954;9.506;2023-05-08T13:23:50;101890.63;;;20.49;80.07
29315;BME280;16320;53.954;9.506;2023-05-08T13:26:54;101888.56;;;20.28;81.75
29315;BME280;16320;53.954;9.506;2023-05-08T13:29:37;101901.91;;;20.28;91.76
29315;BME280;16320;53.954;9.506;2023-05-08T13:32:41;101870.06;;;20.14;94.74
29315;BME280;16320;53.954;9.506;2023-05-08T13:35:47;101869.44;;;19.86;87.60
29315;BME280;16320;53.954;9.506;2023-05-08T13:39:16;101870.53;;;19.71;100.00
29315;BME280;16320;53.954;9.506;2023-05-08T13:42:21;101872.06;;;19.49;86.48
29315;BME280;16320;53.954;9.506;2023-05-08T13:45:25;101864.19;;;19.35;96.07
29315;BME280;16320;53.954;9.506;2023-05-08T13:48:29;101866.38;;;19.67;77.52
29315;BME280;16320;53.954;9.506;2023-05-08T13:51:34;101861.91;;;20.04;100.00
29315;BME280;16320;53.954;9.506;2023-05-08T13:54:38;101859.31;;;20.51;93.15
29315;BME280;16320;53.954;9.506;2023-05-08T13:57:43;101864.91;;;21.06;83.73
29315;BME280;16320;53.954;9.506;2023-05-08T14:00:51;101862.13;;;21.08;56.68
29315;BME280;16320;53.954;9.506;2023-05-08T14:03:59;101849.25;;;21.13;71.82
29315;BME280;16320;53.954;9.506;2023-05-08T14:07:04;101846.84;;;21.21;64.34
29315;BME280;16320;53.954;9.506;2023-05-08T14:10:14;101844.16;;;20.98;53.25
29315;BME280;16320;53.954;9.506;2023-05-08T14:13:22;101849.38;;;21.11;60.62
29315;BME280;16320;53.954;9.506;2023-05-08T14:16:31;101842.19;;;21.34;54.86
29315;BME280;16320;53.954;9.506;2023-05-08T14:19:36;101845.59;;;21.59;65.46
29315;BME280;16320;53.954;9.506;2023-05-08T14:22:54;101843.91;;;22.13;51.13
29315;BME280;16320;53.954;9.506;2023-05-08T14:26:07;101841.69;;;22.51;50.34
29315;BME280;16320;53.954;9.506;2023-05-08T14:29:03;101839.22;;;22.90;46.08
29315;BME280;16320;53.954;9.506;2023-05-08T14:32:07;101835.97;;;22.86;50.17
29315;BME280;16320;53.954;9.506;2023-05-08T14:35:14;101830.97;;;22.51;45.40
29315;BME280;16320;53.954;9.506;2023-05-08T14:38:18;101831.91;;;21.96;46.58
29315;BME280;16320;53.954;9.506;2023-05-08T14:41:27;101829.06;;;21.65;52.89
29315;BME280;16320;53.954;9.506;2023-05-08T14:44:32;101829.75;;;21.79;52.43
29315;BME280;16320;53.954;9.506;2023-05-08T14:47:36;101824.38;;;21.90;51.91
29315;BME280;16320;53.954;9.506;2023-05-08T14:50:41;101810.00;;;22.02;48.97
29315;BME280;16320;53.954;9.506;2023-05-08T14:53:47;101822.25;;;21.72;55.42
29315;BME280;16320;53.954;9.506;2023-05-08T14:56:52;101814.16;;;21.40;57.78
29315;BME280;16320;53.954;9.506;2023-05-08T14:59:56;101807.94;;;21.39;55.88
29315;BME280;16320;53.954;9.506;2023-05-08T15:03:24;101808.06;;;21.27;68.92
29315;BME280;16320;53.954;9.506;2023-05-08T15:07:38;101801.06;;;21.03;53.95
29315;BME280;16320;53.954;9.506;2023-05-08T15:45:15;101787.53;;;19.14;74.96
29315;BME280;16320;53.954;9.506;2023-05-08T15:53:58;101782.22;;;19.01;74.45
29315;BME280;16320;53.954;9.506;2023-05-08T15:57:24;101777.75;;;19.02;79.67
29315;BME280;16320;53.954;9.506;2023-05-08T16:05:16;101785.31;;;19.08;76.76
29315;BME280;16320;53.954;9.506;2023-05-08T16:08:32;101785.81;;;19.13;77.75
29315;BME280;16320;53.954;9.506;2023-05-08T16:12:22;101779.47;;;19.03;91.81
29315;BME280;16320;53.954;9.506;2023-05-08T17:00:05;101759.66;;;18.43;85.01
29315;BME280;16320;53.954;9.506;2023-05-08T17:12:34;101745.59;;;18.28;86.75
29315;BME280;16320;53.954;9.506;2023-05-08T19:42:04;101779.69;;;15.92;97.90
29315;BME280;16320;53.954;9.506;2023-05-08T20:32:28;101777.25;;;14.92;100.00
29315;BME280;16320;53.954;9.506;2023-05-08T20:40:47;101775.88;;;14.85;98.13
29315;BME280;16320;53.954;9.506;2023-05-08T20:45:50;101770.53;;;14.69;100.00
29315;BME280;16320;53.954;9.506;2023-05-08T21:25:14;101752.72;;;14.20;100.00
29315;BME280;16320;53.954;9.506;2023-05-08T21:40:01;101730.03;;;14.16;100.00
29315;BME280;16320;53.954;9.506;2023-05-08T21:44:50;101726.22;;;14.04;100.00
29315;BME280;16320;53.954;9.506;2023-05-08T21:54:24;101729.00;;;13.84;100.00
29315;BME280;16320;53.954;9.506;2023-05-08T21:59:07;101716.09;;;13.78;100.00
29315;BME280;16320;53.954;9.506;2023-05-08T22:03:32;101719.69;;;13.77;100.00
29315;BME280;16320;53.954;9.506;2023-05-08T22:07:45;101719.59;;;13.78;100.00
29315;BME280;16320;53.954;9.506;2023-05-08T22:28:48;101691.91;;;13.50;100.00
29315;BME280;16320;53.954;9.506;2023-05-08T22:32:10;101693.53;;;13.53;100.00
29315;BME280;16320;53.954;9.506;2023-05-08T22:36:27;101700.81;;;13.48;100.00
29315;BME280;16320;53.954;9.506;2023-05-08T22:40:34;101694.22;;;13.57;100.00
29315;BME280;16320;53.954;9.506;2023-05-08T22:44:22;101694.56;;;13.50;100.00
29315;BME280;16320;53.954;9.506;2023-05-08T22:53:34;101691.38;;;13.44;100.00
29315;BME280;16320;53.954;9.506;2023-05-08T22:57:40;101689.13;;;13.53;100.00
29315;BME280;16320;53.954;9.506;2023-05-08T23:01:50;101688.25;;;13.53;100.00
29315;BME280;16320;53.954;9.506;2023-05-08T23:05:05;101678.88;;;13.47;100.00
29315;BME280;16320;53.954;9.506;2023-05-08T23:09:40;101678.00;;;13.47;100.00
29315;BME280;16320;53.954;9.506;2023-05-08T23:13:22;101681.56;;;13.46;100.00
29315;BME280;16320;53.954;9.506;2023-05-08T23:20:35;101664.25;;;13.40;100.00
29315;BME280;16320;53.954;9.506;2023-05-08T23:23:58;101660.63;;;13.43;100.00
29315;BME280;16320;53.954;9.506;2023-05-08T23:31:22;101668.91;;;13.35;100.00
29315;BME280;16320;53.954;9.506;2023-05-08T23:35:20;101662.31;;;13.25;100.00
29315;BME280;16320;53.954;9.506;2023-05-08T23:38:49;101662.13;;;13.29;100.00
29315;BME280;16320;53.954;9.506;2023-05-08T23:55:54;101647.94;;;13.13;100.00
29315;BME280;16320;53.954;9.506;2023-05-08T23:59:40;101640.66;;;13.18;100.00
